Time;durP1;ratioP1;P1;durP2;ratioP2;P2;SDS_P1;SDS_P2;PMS_P1;PMS_P2;Temp;Humidity;BMP_temperature;BMP_pressure;BME280_temperature;BME280_humidity;BME280_pressure;Samples;Min_cycle;Max_cycle;Signal;HPM_P1;HPM_P2
2023/08/10 04:01:29;;;;;;;1.42;1.20;;;11.70;99.90;;;;;;5417002;23;20288;-66
2023/08/10 04:03:56;;;;;;;1.00;1.00;;;11.70;99.90;;;;;;4927312;29;20205;-66
2023/08/10 04:06:23;;;;;;;1.58;1.48;;;11.70;99.90;;;;;;4923369;29;20214;-68
2023/08/10 04:08:49;;;;;;;0.70;0.70;;;11.70;99.90;;;;;;4928953;29;20234;-66
2023/08/10 04:11:16;;;;;;;1.38;1.02;;;11.70;99.90;;;;;;4925565;29;20265;-66
2023/08/10 04:13:43;;;;;;;0.82;0.82;;;11.70;99.90;;;;;;4914031;29;20234;-66
2023/08/10 04:16:10;;;;;;;1.13;1.10;;;11.70;99.90;;;;;;4914343;29;20609;-66
2023/08/10 04:18:38;;;;;;;0.70;0.70;;;11.60;99.90;;;;;;4910590;29;20293;-66
2023/08/10 04:21:06;;;;;;;3.33;1.20;;;11.60;99.90;;;;;;4910547;29;20235;-66
2023/08/10 04:23:32;;;;;;;1.23;1.05;;;11.60;99.90;;;;;;4907051;29;20203;-67
2023/08/10 04:25:59;;;;;;;0.85;0.70;;;11.60;99.90;;;;;;4909225;29;20277;-66
2023/08/10 04:28:26;;;;;;;2.95;0.80;;;11.60;99.90;;;;;;4913730;29;20214;-69
2023/08/10 04:30:52;;;;;;;2.28;0.88;;;11.60;99.90;;;;;;4912442;29;20230;-69
2023/08/10 04:33:19;;;;;;;3.95;1.70;;;11.60;99.90;;;;;;4913463;29;20238;-69
2023/08/10 04:35:47;;;;;;;1.45;1.30;;;11.70;99.90;;;;;;4913016;29;20211;-69
2023/08/10 04:38:13;;;;;;;1.35;1.13;;;11.70;99.90;;;;;;4913702;29;20215;-69
2023/08/10 04:40:41;;;;;;;1.02;1.02;;;11.70;99.90;;;;;;4912330;29;20226;-69
2023/08/10 04:43:08;;;;;;;0.75;0.75;;;11.70;99.90;;;;;;4913415;29;20198;-70
2023/08/10 04:45:34;;;;;;;5.50;0.80;;;11.70;99.90;;;;;;4910927;29;20206;-69
2023/08/10 04:48:01;;;;;;;8.68;1.35;;;11.70;99.90;;;;;;4913388;29;20211;-69
2023/08/10 04:50:28;;;;;;;5.03;1.00;;;11.70;99.90;;;;;;4909918;29;20206;-69
2023/08/10 04:52:57;;;;;;;1.63;1.30;;;11.80;99.90;;;;;;4910415;29;20772;-69
2023/08/10 04:55:25;;;;;;;2.27;2.27;;;11.80;99.90;;;;;;4911324;29;20517;-69
2023/08/10 04:57:52;;;;;;;2.30;1.63;;;12.10;99.90;;;;;;4905208;29;20475;-69
2023/08/10 05:00:19;;;;;;;12.60;1.73;;;12.40;99.90;;;;;;4912716;29;20553;-69
2023/08/10 05:02:46;;;;;;;1.30;1.20;;;12.60;99.90;;;;;;4914068;29;20462;-69
2023/08/10 05:05:14;;;;;;;1.50;1.47;;;12.70;99.90;;;;;;4911549;29;20558;-69
2023/08/10 05:07:41;;;;;;;1.47;1.47;;;12.80;99.90;;;;;;4912559;29;20474;-69
2023/08/10 05:10:10;;;;;;;7.20;1.70;;;12.90;99.90;;;;;;4913003;29;20471;-69
2023/08/10 05:12:38;;;;;;;1.87;1.77;;;12.90;99.90;;;;;;4913816;29;20461;-69
2023/08/10 05:15:06;;;;;;;0.90;0.90;;;12.80;99.90;;;;;;4910846;29;20486;-69
2023/08/10 05:17:33;;;;;;;0.97;0.97;;;12.80;99.90;;;;;;4913850;29;20492;-70
2023/08/10 05:19:59;;;;;;;5.80;1.00;;;12.90;99.90;;;;;;4911536;29;20502;-69
2023/08/10 05:22:26;;;;;;;1.60;0.97;;;12.80;99.90;;;;;;4912504;29;20490;-69
2023/08/10 05:24:53;;;;;;;1.20;1.20;;;12.80;99.90;;;;;;4910546;29;20528;-70
2023/08/10 05:27:21;;;;;;;1.37;1.27;;;12.80;99.90;;;;;;4912613;29;20532;-70
2023/08/10 05:29:48;;;;;;;2.30;0.60;;;12.80;99.90;;;;;;4912485;29;20554;-70
2023/08/10 05:32:14;;;;;;;0.90;0.90;;;12.90;99.90;;;;;;4911141;29;20491;-70
2023/08/10 05:34:41;;;;;;;1.10;1.10;;;12.90;99.90;;;;;;4909649;29;20490;-70
2023/08/10 05:37:08;;;;;;;0.67;0.67;;;13.00;99.90;;;;;;4911378;29;20962;-70
2023/08/10 05:39:34;;;;;;;0.50;0.50;;;13.00;99.90;;;;;;4912516;29;20907;-70
2023/08/10 05:42:01;;;;;;;0.40;0.40;;;13.00;99.90;;;;;;4912214;29;20530;-70
2023/08/10 05:44:29;;;;;;;0.83;0.83;;;13.00;99.90;;;;;;4913800;29;20533;-70
2023/08/10 05:46:56;;;;;;;0.80;0.80;;;13.10;99.90;;;;;;4913605;29;20478;-72
2023/08/10 05:49:22;;;;;;;2.90;0.73;;;13.20;99.90;;;;;;4910631;29;20495;-70
2023/08/10 05:51:49;;;;;;;1.00;1.00;;;13.20;99.90;;;;;;4912711;29;21210;-70
2023/08/10 05:54:16;;;;;;;3.87;1.80;;;13.30;99.90;;;;;;4909908;29;20497;-70
2023/08/10 05:56:42;;;;;;;1.07;1.07;;;13.40;99.90;;;;;;4910292;29;20477;-70
2023/08/10 05:59:09;;;;;;;0.63;0.63;;;13.40;99.90;;;;;;4912607;29;20527;-70
2023/08/10 06:01:38;;;;;;;3.30;0.97;;;13.40;99.90;;;;;;4909092;29;20600;-70
2023/08/10 06:04:05;;;;;;;0.73;0.73;;;13.60;99.90;;;;;;4905184;29;20517;-70
2023/08/10 06:06:32;;;;;;;1.33;0.70;;;13.70;99.90;;;;;;4910821;29;20537;-70
2023/08/10 06:08:59;;;;;;;0.90;0.90;;;13.70;99.90;;;;;;4911260;29;20466;-70
2023/08/10 06:11:26;;;;;;;0.43;0.43;;;14.00;99.90;;;;;;4913128;29;20478;-70
2023/08/10 06:13:53;;;;;;;2.03;1.93;;;14.70;99.90;;;;;;4911683;29;21021;-70
2023/08/10 06:16:20;;;;;;;0.60;0.60;;;15.60;99.90;;;;;;4910809;29;20474;-70
2023/08/10 06:18:51;;;;;;;0.80;0.80;;;16.70;99.90;;;;;;4907538;29;22359;-70
2023/08/10 06:21:18;;;;;;;1.13;0.80;;;17.80;99.90;;;;;;4912965;29;20488;-70
2023/08/10 06:23:45;;;;;;;0.53;0.53;;;18.70;99.90;;;;;;4912215;29;20478;-70
2023/08/10 06:26:12;;;;;;;4.43;0.80;;;19.30;99.90;;;;;;4911064;29;20535;-70
2023/08/10 06:28:39;;;;;;;0.63;0.50;;;20.10;99.90;;;;;;4912631;29;20516;-69
2023/08/10 06:31:09;;;;;;;1.20;0.53;;;20.70;99.90;;;;;;4910901;29;20588;-69
2023/08/10 06:33:36;;;;;;;2.63;0.50;;;21.10;99.90;;;;;;4910794;29;20486;-68
2023/08/10 06:36:06;;;;;;;0.40;0.40;;;21.50;99.90;;;;;;4907969;29;20467;-69
2023/08/10 06:38:34;;;;;;;0.70;0.60;;;21.80;99.90;;;;;;4910985;29;20466;-69
2023/08/10 06:41:01;;;;;;;1.40;0.53;;;22.00;99.90;;;;;;4912168;29;20482;-70
2023/08/10 06:43:28;;;;;;;0.63;0.57;;;22.20;99.90;;;;;;4911438;29;20822;-69
2023/08/10 06:45:55;;;;;;;0.97;0.30;;;22.50;99.90;;;;;;4907140;29;20981;-67
2023/08/10 06:48:22;;;;;;;0.50;0.50;;;23.10;99.90;;;;;;4909896;29;20557;-70
2023/08/10 06:50:49;;;;;;;0.60;0.43;;;23.40;99.90;;;;;;4905297;29;20580;-70
2023/08/10 06:53:17;;;;;;;0.70;0.70;;;23.50;99.90;;;;;;4914411;29;20541;-70
2023/08/10 06:55:44;;;;;;;2.10;0.80;;;23.60;99.90;;;;;;4910935;29;20497;-71
2023/08/10 06:58:12;;;;;;;0.83;0.83;;;23.60;99.90;;;;;;4916240;29;21024;-71
2023/08/10 07:00:39;;;;;;;0.30;0.30;;;23.90;99.90;;;;;;4914511;29;20498;-71
2023/08/10 07:03:06;;;;;;;0.53;0.53;;;24.20;99.90;;;;;;4913083;29;20557;-70
2023/08/10 07:05:37;;;;;;;1.40;0.70;;;24.30;99.90;;;;;;4912251;29;20467;-70
2023/08/10 07:08:05;;;;;;;0.60;0.60;;;24.40;99.90;;;;;;4915759;29;20454;-70
2023/08/10 07:10:33;;;;;;;0.50;0.50;;;24.60;99.90;;;;;;4914614;29;20573;-70
2023/08/10 07:12:59;;;;;;;0.33;0.33;;;24.70;99.90;;;;;;4914776;29;20477;-70
2023/08/10 07:15:26;;;;;;;0.40;0.40;;;24.60;99.90;;;;;;4913711;29;20486;-69
2023/08/10 07:17:53;;;;;;;0.60;0.60;;;24.50;99.90;;;;;;4911898;29;20519;-70
2023/08/10 07:20:20;;;;;;;0.27;0.27;;;24.40;99.90;;;;;;4913442;29;20470;-70
2023/08/10 07:22:47;;;;;;;1.50;0.70;;;24.30;99.90;;;;;;4914638;29;20816;-69
2023/08/10 07:25:17;;;;;;;0.30;0.30;;;24.30;99.90;;;;;;4912625;29;20470;-69
2023/08/10 07:27:46;;;;;;;1.13;0.40;;;24.20;99.90;;;;;;4908935;29;20481;-71
2023/08/10 07:30:14;;;;;;;0.50;0.47;;;24.30;99.90;;;;;;4909072;29;20549;-68
2023/08/10 07:32:42;;;;;;;0.33;0.33;;;24.50;99.90;;;;;;4913232;29;20542;-69
2023/08/10 07:35:09;;;;;;;0.77;0.70;;;24.70;99.90;;;;;;4911123;29;21095;-70
2023/08/10 07:37:36;;;;;;;1.10;0.60;;;24.50;99.90;;;;;;4914258;29;20470;-69
2023/08/10 07:40:03;;;;;;;0.70;0.70;;;23.60;99.90;;;;;;4915581;29;20466;-70
2023/08/10 07:42:30;;;;;;;1.50;1.30;;;22.80;99.90;;;;;;4909552;29;20491;-70
2023/08/10 07:44:58;;;;;;;0.50;0.50;;;22.10;99.90;;;;;;4911415;29;20479;-71
2023/08/10 07:47:25;;;;;;;1.40;0.77;;;21.40;99.90;;;;;;4907788;29;20473;-70
2023/08/10 07:49:51;;;;;;;0.70;0.70;;;20.90;99.90;;;;;;4913222;29;20471;-71
2023/08/10 07:52:18;;;;;;;0.87;0.53;;;20.50;99.90;;;;;;4913005;29;20577;-71
2023/08/10 07:54:45;;;;;;;4.53;1.23;;;20.10;99.90;;;;;;4913448;29;20494;-71
2023/08/10 07:57:12;;;;;;;0.67;0.40;;;19.80;99.90;;;;;;4910022;29;20471;-69
2023/08/10 07:59:38;;;;;;;1.60;0.50;;;19.80;99.90;;;;;;4913072;29;20549;-70
2023/08/10 08:02:08;;;;;;;0.83;0.23;;;19.80;99.90;;;;;;4904723;29;20498;-71
2023/08/10 08:04:34;;;;;;;3.10;0.47;;;19.60;99.90;;;;;;4912628;29;20496;-70
2023/08/10 08:07:01;;;;;;;9.63;1.27;;;19.20;99.90;;;;;;4913016;29;21161;-71
2023/08/10 08:09:28;;;;;;;1.67;0.70;;;19.00;99.90;;;;;;4913444;29;20479;-70
2023/08/10 08:11:54;;;;;;;0.33;0.33;;;18.80;99.90;;;;;;4912316;29;21452;-72
2023/08/10 08:14:21;;;;;;;0.20;0.20;;;18.60;99.90;;;;;;4913310;29;20498;-71
2023/08/10 08:16:48;;;;;;;0.40;0.40;;;18.60;99.90;;;;;;4910693;29;20614;-70
2023/08/10 08:19:17;;;;;;;0.80;0.60;;;18.60;99.90;;;;;;4910260;29;20489;-70
2023/08/10 08:21:46;;;;;;;1.40;0.50;;;18.60;99.90;;;;;;4910553;29;20495;-69
2023/08/10 08:24:13;;;;;;;0.93;0.70;;;18.70;99.90;;;;;;4913448;29;20479;-71
2023/08/10 08:26:40;;;;;;;1.07;0.50;;;18.90;99.90;;;;;;4914375;29;20480;-71
2023/08/10 08:29:07;;;;;;;3.40;0.43;;;19.10;99.90;;;;;;4914303;29;20470;-70
2023/08/10 08:31:35;;;;;;;1.20;0.30;;;19.40;99.90;;;;;;4911442;29;20502;-70
2023/08/10 08:34:03;;;;;;;1.83;0.50;;;19.30;99.90;;;;;;4904916;29;20575;-70
2023/08/10 08:36:31;;;;;;;1.17;0.40;;;19.00;99.90;;;;;;4912370;29;20964;-70
2023/08/10 08:38:58;;;;;;;0.50;0.50;;;18.70;99.90;;;;;;4908471;29;20478;-70
2023/08/10 08:41:28;;;;;;;0.20;0.20;;;18.50;99.90;;;;;;4909533;29;20488;-70
2023/08/10 08:43:56;;;;;;;0.50;0.50;;;18.40;99.90;;;;;;4913899;29;20840;-70
2023/08/10 08:46:28;;;;;;;0.57;0.57;;;18.30;99.90;;;;;;4912801;29;20518;-70
2023/08/10 08:48:56;;;;;;;0.50;0.50;;;18.30;99.90;;;;;;4912344;29;20520;-70
2023/08/10 08:51:23;;;;;;;1.60;0.50;;;18.40;99.90;;;;;;4913289;29;20495;-72
2023/08/10 08:53:52;;;;;;;3.50;0.57;;;18.50;99.90;;;;;;4912995;29;20538;-70
2023/08/10 08:56:19;;;;;;;0.87;0.50;;;18.50;99.90;;;;;;4911824;29;20654;-72
2023/08/10 08:58:45;;;;;;;0.40;0.40;;;18.60;99.90;;;;;;4913540;29;20463;-70
2023/08/10 09:01:14;;;;;;;3.23;0.63;;;18.70;99.90;;;;;;4912899;29;20515;-71
2023/08/10 09:03:41;;;;;;;2.30;0.60;;;18.80;99.90;;;;;;4911577;29;20476;-70
2023/08/10 09:06:07;;;;;;;0.70;0.70;;;19.00;99.90;;;;;;4907456;29;20531;-71
2023/08/10 09:08:38;;;;;;;0.30;0.30;;;19.20;99.90;;;;;;4911837;29;20559;-71
2023/08/10 09:11:06;;;;;;;1.60;0.40;;;19.30;99.90;;;;;;4913550;29;20506;-71
2023/08/10 09:13:33;;;;;;;0.97;0.77;;;19.40;99.90;;;;;;4915231;29;20476;-69
2023/08/10 09:16:08;;;;;;;0.97;0.60;;;19.40;99.90;;;;;;4911132;29;20490;-70
2023/08/10 09:18:36;;;;;;;0.40;0.40;;;19.40;99.90;;;;;;4907560;29;20481;-70
2023/08/10 09:21:14;;;;;;;0.53;0.53;;;19.40;99.90;;;;;;4907324;29;20995;-70
2023/08/10 09:23:42;;;;;;;2.33;0.70;;;19.30;99.90;;;;;;4913449;29;20458;-70
2023/08/10 09:26:12;;;;;;;0.43;0.43;;;19.20;99.90;;;;;;4913731;29;20890;-72
2023/08/10 09:28:39;;;;;;;1.90;0.80;;;19.00;99.90;;;;;;4914058;29;20512;-71
2023/08/10 09:31:07;;;;;;;0.57;0.57;;;19.00;99.90;;;;;;4911679;29;20503;-71
2023/08/10 09:33:35;;;;;;;0.50;0.50;;;19.10;99.90;;;;;;4913691;29;20522;-71
2023/08/10 09:36:03;;;;;;;1.90;0.50;;;19.20;99.90;;;;;;4913267;29;20506;-69
2023/08/10 09:38:29;;;;;;;0.43;0.43;;;19.50;99.90;;;;;;4914032;29;20841;-72
2023/08/10 09:41:52;;;;;;;0.30;0.30;;;19.70;99.90;;;;;;4911778;29;20553;-70
2023/08/10 09:44:21;;;;;;;1.07;0.87;;;19.50;99.90;;;;;;4909076;29;20478;-71
2023/08/10 09:46:56;;;;;;;0.43;0.43;;;19.50;99.90;;;;;;4913544;29;20497;-69
2023/08/10 09:49:22;;;;;;;0.30;0.30;;;19.60;99.90;;;;;;4912933;29;20999;-71
2023/08/10 09:51:49;;;;;;;0.53;0.53;;;19.60;99.90;;;;;;4910217;29;20516;-71
2023/08/10 09:54:16;;;;;;;0.83;0.43;;;19.60;99.90;;;;;;4909736;29;20554;-71
2023/08/10 09:56:42;;;;;;;0.50;0.50;;;19.70;99.90;;;;;;4908738;29;20493;-70
2023/08/10 09:59:10;;;;;;;8.10;0.70;;;19.70;99.90;;;;;;4910077;29;20473;-71
2023/08/10 10:01:38;;;;;;;8.13;0.80;;;19.60;99.90;;;;;;4912684;29;20493;-70
2023/08/10 10:04:06;;;;;;;0.60;0.60;;;19.50;99.90;;;;;;4909564;29;20474;-71
2023/08/10 10:06:33;;;;;;;0.40;0.40;;;19.40;99.90;;;;;;4908245;29;20544;-70
2023/08/10 10:09:03;;;;;;;0.50;0.50;;;19.30;99.90;;;;;;4911691;29;20488;-71
2023/08/10 10:11:31;;;;;;;0.47;0.47;;;19.40;99.90;;;;;;4912586;29;20486;-71
2023/08/10 10:13:58;;;;;;;1.90;0.50;;;19.50;99.90;;;;;;4910170;29;20492;-70
2023/08/10 10:16:26;;;;;;;1.53;0.60;;;19.60;99.90;;;;;;4910264;29;20497;-71
2023/08/10 10:18:54;;;;;;;4.10;0.80;;;19.70;99.90;;;;;;4910153;29;20516;-71
2023/08/10 10:21:21;;;;;;;0.47;0.47;;;19.70;99.90;;;;;;4912558;29;20488;-71
2023/08/10 10:23:49;;;;;;;6.57;0.97;;;19.70;99.90;;;;;;4910318;29;20576;-70
2023/08/10 10:26:20;;;;;;;0.60;0.60;;;19.60;99.90;;;;;;4911084;29;20517;-71
2023/08/10 10:29:07;;;;;;;0.70;0.70;;;19.70;99.90;;;;;;4916204;29;20468;-70
2023/08/10 10:31:34;;;;;;;0.37;0.37;;;19.50;99.90;;;;;;4906293;29;20549;-71
2023/08/10 10:34:03;;;;;;;5.50;1.17;;;19.40;99.90;;;;;;4912150;29;20477;-71
2023/08/10 10:36:32;;;;;;;1.30;0.90;;;19.40;99.90;;;;;;4913988;29;20505;-69
2023/08/10 10:39:07;;;;;;;1.90;0.37;;;19.40;99.90;;;;;;4916047;29;20465;-70
2023/08/10 10:41:35;;;;;;;2.27;0.50;;;19.40;99.90;;;;;;4914875;29;20492;-71
2023/08/10 10:44:05;;;;;;;0.43;0.40;;;19.40;99.90;;;;;;4914606;29;20906;-71
2023/08/10 10:46:40;;;;;;;0.40;0.40;;;19.30;99.90;;;;;;4916011;29;20482;-70
2023/08/10 10:49:12;;;;;;;2.00;0.40;;;19.30;99.90;;;;;;4914460;29;20877;-70
2023/08/10 10:51:58;;;;;;;0.50;0.50;;;19.40;99.90;;;;;;4916455;29;20480;-72
2023/08/10 10:54:25;;;;;;;0.70;0.53;;;19.40;99.90;;;;;;4914607;29;20836;-71
2023/08/10 10:56:52;;;;;;;0.40;0.40;;;19.60;99.90;;;;;;4913039;29;20503;-71
2023/08/10 10:59:20;;;;;;;4.03;0.60;;;19.80;99.90;;;;;;4915607;29;20465;-71
2023/08/10 11:01:48;;;;;;;0.60;0.30;;;20.00;99.90;;;;;;4915858;29;20607;-70
2023/08/10 11:04:15;;;;;;;1.33;0.50;;;20.30;99.90;;;;;;4913891;29;20484;-69
2023/08/10 11:06:42;;;;;;;3.40;1.10;;;20.60;99.90;;;;;;4910725;29;20473;-70
2023/08/10 11:09:09;;;;;;;0.40;0.40;;;20.80;99.90;;;;;;4915302;29;20566;-69
2023/08/10 11:11:37;;;;;;;0.50;0.43;;;20.90;99.90;;;;;;4915889;29;21013;-69
2023/08/10 11:14:03;;;;;;;2.97;1.00;;;21.20;99.90;;;;;;4914616;29;21046;-70
2023/08/10 11:16:43;;;;;;;1.50;0.40;;;21.30;99.90;;;;;;4912458;29;20835;-68
2023/08/10 11:19:11;;;;;;;0.90;0.30;;;21.30;99.90;;;;;;4909031;29;20214;-69
2023/08/10 11:21:43;;;;;;;2.27;0.50;;;21.30;99.90;;;;;;4908231;29;20501;-70
2023/08/10 11:24:10;;;;;;;0.40;0.40;;;21.30;99.90;;;;;;4908968;29;20527;-70
2023/08/10 11:26:37;;;;;;;1.90;0.60;;;21.30;99.90;;;;;;4915332;29;20449;-70
2023/08/10 11:29:04;;;;;;;1.33;0.47;;;21.30;99.90;;;;;;4910704;29;20516;-71
2023/08/10 11:31:38;;;;;;;1.20;0.63;;;21.40;99.90;;;;;;4903329;29;20585;-70
2023/08/10 11:34:21;;;;;;;0.40;0.40;;;21.40;99.90;;;;;;4909971;29;20473;-70
2023/08/10 11:36:50;;;;;;;3.03;0.50;;;21.50;99.90;;;;;;4910025;29;20630;-70
2023/08/10 11:39:17;;;;;;;1.60;0.40;;;21.50;99.90;;;;;;4910259;29;20878;-69
2023/08/10 11:41:45;;;;;;;2.67;0.50;;;21.40;99.90;;;;;;4913746;29;21066;-68
2023/08/10 11:44:23;;;;;;;0.77;0.60;;;21.30;99.90;;;;;;4913879;29;20561;-71
2023/08/10 11:46:50;;;;;;;0.37;0.37;;;21.10;99.90;;;;;;4915020;29;20555;-69
2023/08/10 11:49:16;;;;;;;0.40;0.40;;;21.10;99.90;;;;;;4912074;29;20476;-68
2023/08/10 11:51:44;;;;;;;2.00;0.60;;;21.00;99.90;;;;;;4913628;29;20495;-69
2023/08/10 11:54:12;;;;;;;0.40;0.40;;;21.00;99.90;;;;;;4911367;29;20575;-69
2023/08/10 11:56:45;;;;;;;0.30;0.30;;;21.10;99.90;;;;;;4914749;29;20931;-71
2023/08/10 11:59:14;;;;;;;0.53;0.53;;;21.20;99.90;;;;;;4911363;29;20841;-71
2023/08/10 12:01:47;;;;;;;2.07;0.40;;;21.20;99.90;;;;;;4912969;29;20568;-71
2023/08/10 12:04:15;;;;;;;0.53;0.30;;;21.10;99.90;;;;;;4910316;29;20474;-71
2023/08/10 12:06:42;;;;;;;3.67;0.70;;;21.10;99.90;;;;;;4914859;29;20542;-70
2023/08/10 12:09:11;;;;;;;0.40;0.40;;;21.00;99.90;;;;;;4913552;29;20488;-71
2023/08/10 12:11:39;;;;;;;1.60;0.40;;;21.10;99.90;;;;;;4913794;29;20529;-71
2023/08/10 12:14:08;;;;;;;3.80;1.13;;;21.00;99.90;;;;;;4910562;29;20474;-70
2023/08/10 12:16:35;;;;;;;1.20;0.40;;;21.00;99.90;;;;;;4913889;29;20994;-71
2023/08/10 12:19:02;;;;;;;0.40;0.40;;;20.70;99.90;;;;;;4911331;29;20478;-69
2023/08/10 12:21:28;;;;;;;0.80;0.73;;;20.60;99.90;;;;;;4911672;29;20873;-72
2023/08/10 12:23:55;;;;;;;0.60;0.60;;;20.60;99.90;;;;;;4912300;29;20485;-70
2023/08/10 12:26:22;;;;;;;0.40;0.40;;;20.60;99.90;;;;;;4910008;29;20463;-69
2023/08/10 12:28:50;;;;;;;0.50;0.50;;;20.70;99.90;;;;;;4911712;29;20482;-71
2023/08/10 12:31:17;;;;;;;2.40;2.30;;;20.60;99.90;;;;;;4913058;29;20836;-70
2023/08/10 12:33:44;;;;;;;0.40;0.40;;;20.70;99.90;;;;;;4912862;29;20474;-70
2023/08/10 12:36:11;;;;;;;1.80;0.53;;;20.70;99.90;;;;;;4906532;29;21022;-70
2023/08/10 12:38:38;;;;;;;2.40;0.60;;;20.70;99.90;;;;;;4913303;29;20479;-70
2023/08/10 12:41:05;;;;;;;0.70;0.70;;;20.80;99.90;;;;;;4912965;29;20490;-70
2023/08/10 12:43:32;;;;;;;1.60;0.50;;;20.80;99.90;;;;;;4924986;23;20502;-69
2023/08/10 12:46:00;;;;;;;0.47;0.40;;;21.00;99.90;;;;;;4899387;29;20572;-69
2023/08/10 12:48:26;;;;;;;0.53;0.53;;;21.10;99.90;;;;;;4906373;29;20506;-68
2023/08/10 12:50:53;;;;;;;1.03;0.93;;;21.10;99.90;;;;;;4901252;29;20863;-69
2023/08/10 12:53:20;;;;;;;1.57;0.60;;;21.10;99.90;;;;;;4893792;29;20575;-70
2023/08/10 12:55:47;;;;;;;4.83;0.80;;;21.00;99.90;;;;;;4885317;29;20511;-70
2023/08/10 12:58:15;;;;;;;0.60;0.60;;;21.10;99.90;;;;;;4893203;29;20476;-70
2023/08/10 13:00:41;;;;;;;0.87;0.47;;;21.10;99.90;;;;;;4886854;29;20605;-69
2023/08/10 13:03:10;;;;;;;1.50;0.67;;;20.90;99.90;;;;;;4886280;29;20952;-70
2023/08/10 13:05:37;;;;;;;0.30;0.30;;;21.00;99.90;;;;;;4882609;29;20488;-70
2023/08/10 13:08:04;;;;;;;2.93;0.93;;;21.10;99.90;;;;;;4891564;29;21181;-71
2023/08/10 13:10:31;;;;;;;1.30;0.53;;;21.20;99.90;;;;;;4894241;29;20475;-70
2023/08/10 13:12:58;;;;;;;0.37;0.37;;;21.30;99.90;;;;;;4894485;29;20461;-69
2023/08/10 13:15:25;;;;;;;1.57;0.50;;;21.40;99.90;;;;;;4893088;29;20477;-70
2023/08/10 13:17:52;;;;;;;0.57;0.40;;;21.60;99.90;;;;;;4895389;29;20539;-70
2023/08/10 13:20:20;;;;;;;0.50;0.50;;;21.80;99.90;;;;;;4882698;29;22055;-70
2023/08/10 13:22:48;;;;;;;0.60;0.57;;;21.70;99.90;;;;;;4889899;29;20481;-70
2023/08/10 13:25:15;;;;;;;0.20;0.20;;;21.80;99.90;;;;;;4894087;29;20977;-71
2023/08/10 13:27:42;;;;;;;1.43;0.57;;;21.90;99.90;;;;;;4892762;29;20506;-69
2023/08/10 13:30:10;;;;;;;3.50;0.47;;;22.00;99.90;;;;;;4891998;29;20516;-70
2023/08/10 13:32:37;;;;;;;0.50;0.37;;;22.10;99.90;;;;;;4888598;29;20501;-70
2023/08/10 13:35:04;;;;;;;1.07;0.73;;;22.10;99.90;;;;;;4890880;29;21052;-71
2023/08/10 13:37:33;;;;;;;0.30;0.30;;;22.20;99.90;;;;;;4891643;29;20989;-71
2023/08/10 13:40:00;;;;;;;1.33;0.53;;;22.40;99.90;;;;;;4892656;29;21866;-70
2023/08/10 13:42:27;;;;;;;0.40;0.40;;;22.20;99.90;;;;;;4892420;29;20951;-70
2023/08/10 13:44:53;;;;;;;0.23;0.23;;;22.00;99.90;;;;;;4890639;29;21018;-70
2023/08/10 13:47:21;;;;;;;0.43;0.43;;;21.70;99.90;;;;;;4891127;29;21206;-70
2023/08/10 13:49:47;;;;;;;0.40;0.40;;;21.50;99.90;;;;;;4893525;29;20841;-71
2023/08/10 13:52:14;;;;;;;0.40;0.40;;;21.60;99.90;;;;;;4882016;29;20484;-70
2023/08/10 13:54:42;;;;;;;0.50;0.50;;;21.80;99.90;;;;;;4891757;29;20497;-69
2023/08/10 13:57:11;;;;;;;3.93;0.60;;;21.80;99.90;;;;;;4892111;29;20593;-71
2023/08/10 13:59:38;;;;;;;0.47;0.47;;;21.90;99.90;;;;;;4887033;29;20513;-70
2023/08/10 14:02:05;;;;;;;0.33;0.33;;;22.10;99.90;;;;;;4893795;29;20471;-71
2023/08/10 14:04:32;;;;;;;0.37;0.37;;;22.00;99.90;;;;;;4891242;29;20631;-69
2023/08/10 14:06:59;;;;;;;0.60;0.60;;;22.00;99.90;;;;;;4891053;29;21337;-70
2023/08/10 14:09:26;;;;;;;0.60;0.50;;;21.70;99.90;;;;;;4887873;29;20473;-71
2023/08/10 14:11:54;;;;;;;0.63;0.63;;;21.60;99.90;;;;;;4892636;29;20496;-70
2023/08/10 14:14:21;;;;;;;0.40;0.40;;;21.50;99.90;;;;;;4892032;29;20484;-71
2023/08/10 14:16:48;;;;;;;0.40;0.40;;;21.40;99.90;;;;;;4890992;29;20491;-71
2023/08/10 14:19:16;;;;;;;1.23;0.70;;;21.40;99.90;;;;;;4892452;29;21085;-71
2023/08/10 14:21:43;;;;;;;0.97;0.53;;;21.40;99.90;;;;;;4890781;29;20475;-71
2023/08/10 14:24:10;;;;;;;0.30;0.30;;;21.40;99.90;;;;;;4890184;29;20828;-71
2023/08/10 14:26:37;;;;;;;1.03;0.60;;;21.40;99.90;;;;;;4892257;29;20888;-71
2023/08/10 14:29:05;;;;;;;1.73;1.07;;;21.40;99.90;;;;;;4892685;29;20488;-70
2023/08/10 14:31:32;;;;;;;1.20;0.30;;;21.50;99.90;;;;;;4890973;29;20528;-69
2023/08/10 14:33:59;;;;;;;0.43;0.43;;;21.40;99.90;;;;;;4892813;29;20489;-71
2023/08/10 14:36:25;;;;;;;0.43;0.43;;;21.20;99.90;;;;;;4892272;29;20490;-71
2023/08/10 14:38:52;;;;;;;3.23;1.53;;;21.20;99.90;;;;;;4892568;29;20471;-71
2023/08/10 14:41:19;;;;;;;2.00;0.90;;;21.20;99.90;;;;;;4892331;29;20478;-71
2023/08/10 14:43:46;;;;;;;1.00;0.50;;;21.20;99.90;;;;;;4891172;29;20620;-71
2023/08/10 14:46:14;;;;;;;0.73;0.60;;;21.20;99.90;;;;;;4890970;29;20475;-68
2023/08/10 14:48:41;;;;;;;0.40;0.40;;;21.20;99.90;;;;;;4892819;29;20470;-69
2023/08/10 14:51:07;;;;;;;0.77;0.30;;;21.30;99.90;;;;;;4891370;29;20502;-69
2023/08/10 14:53:35;;;;;;;0.60;0.60;;;21.30;99.90;;;;;;4892933;29;20486;-68
2023/08/10 14:56:01;;;;;;;0.93;0.50;;;21.30;99.90;;;;;;4892091;29;20479;-67
2023/08/10 14:58:28;;;;;;;0.50;0.50;;;21.50;99.90;;;;;;4893142;29;20455;-68
2023/08/10 15:00:55;;;;;;;0.30;0.30;;;21.50;99.90;;;;;;4892596;29;20582;-69
2023/08/10 15:03:23;;;;;;;0.77;0.60;;;21.40;99.90;;;;;;4893065;29;21107;-72
2023/08/10 15:05:50;;;;;;;0.40;0.40;;;21.30;99.90;;;;;;4886583;29;20479;-71
2023/08/10 15:08:17;;;;;;;0.73;0.63;;;21.30;99.90;;;;;;4891107;29;20471;-70
2023/08/10 15:10:44;;;;;;;0.63;0.43;;;21.40;99.90;;;;;;4892845;29;20535;-72
2023/08/10 15:13:10;;;;;;;0.77;0.77;;;21.40;99.90;;;;;;4893416;29;20520;-70
2023/08/10 15:15:37;;;;;;;0.60;0.60;;;21.50;99.90;;;;;;4896183;29;20489;-70
2023/08/10 15:18:04;;;;;;;0.73;0.73;;;21.60;99.90;;;;;;4895458;29;20491;-70
2023/08/10 15:20:32;;;;;;;0.37;0.37;;;21.70;99.90;;;;;;4896139;29;20482;-69
2023/08/10 15:22:59;;;;;;;0.50;0.40;;;21.80;99.90;;;;;;4896604;29;20469;-70
2023/08/10 15:25:25;;;;;;;0.40;0.40;;;21.90;99.90;;;;;;4896278;29;20468;-69
2023/08/10 15:27:52;;;;;;;0.40;0.40;;;21.90;99.90;;;;;;4894639;29;20900;-70
2023/08/10 15:30:19;;;;;;;0.40;0.40;;;21.80;99.90;;;;;;4896635;29;20458;-69
2023/08/10 15:32:46;;;;;;;0.60;0.60;;;21.70;99.90;;;;;;4896246;29;20472;-70
2023/08/10 15:35:13;;;;;;;0.57;0.57;;;21.80;99.90;;;;;;4896237;29;20470;-70
2023/08/10 15:37:41;;;;;;;2.87;0.43;;;21.90;99.90;;;;;;4895682;29;20487;-69
2023/08/10 15:40:09;;;;;;;0.30;0.30;;;22.00;99.90;;;;;;4896619;29;20535;-69
2023/08/10 15:42:36;;;;;;;0.63;0.63;;;22.10;99.90;;;;;;4896667;29;20849;-69
2023/08/10 15:45:03;;;;;;;0.40;0.40;;;22.00;99.90;;;;;;4895951;29;20502;-70
2023/08/10 15:47:30;;;;;;;2.00;0.90;;;22.00;99.90;;;;;;4895305;29;20554;-69
2023/08/10 15:49:57;;;;;;;0.73;0.73;;;21.80;99.90;;;;;;4895972;29;20570;-71
2023/08/10 15:52:23;;;;;;;0.30;0.30;;;21.60;99.90;;;;;;4896147;29;20471;-70
2023/08/10 15:54:52;;;;;;;4.00;0.93;;;21.40;99.90;;;;;;4895565;29;20483;-70
2023/08/10 15:57:19;;;;;;;0.60;0.37;;;21.20;99.90;;;;;;4894794;29;20577;-70
2023/08/10 15:59:46;;;;;;;0.57;0.40;;;21.20;99.90;;;;;;4894931;29;20486;-70
2023/08/10 16:02:13;;;;;;;0.47;0.47;;;21.20;99.90;;;;;;4895826;29;20489;-70
2023/08/10 16:04:40;;;;;;;2.57;0.97;;;21.10;99.90;;;;;;4892731;29;20497;-70
2023/08/10 16:07:07;;;;;;;0.60;0.60;;;21.20;99.90;;;;;;4888287;29;20478;-70
2023/08/10 16:09:34;;;;;;;0.43;0.43;;;21.30;99.90;;;;;;4893770;29;20946;-69
2023/08/10 16:12:02;;;;;;;0.40;0.40;;;21.40;99.90;;;;;;4895373;29;20477;-70
2023/08/10 16:14:28;;;;;;;2.93;0.77;;;21.40;99.90;;;;;;4894853;29;20850;-68
2023/08/10 16:16:55;;;;;;;0.30;0.30;;;21.60;99.90;;;;;;4891737;29;20493;-69
2023/08/10 16:19:22;;;;;;;1.50;0.40;;;21.70;99.90;;;;;;4893004;29;20478;-67
2023/08/10 16:21:48;;;;;;;0.30;0.30;;;21.80;99.90;;;;;;4895325;29;20469;-68
2023/08/10 16:24:16;;;;;;;0.57;0.57;;;21.90;99.90;;;;;;4894636;29;20494;-67
2023/08/10 16:26:43;;;;;;;0.60;0.60;;;21.80;99.90;;;;;;4892730;29;20478;-69
2023/08/10 16:29:11;;;;;;;0.50;0.50;;;21.50;99.90;;;;;;4892235;29;20473;-69
2023/08/10 16:31:37;;;;;;;0.80;0.80;;;21.20;99.90;;;;;;4887392;29;20486;-70
2023/08/10 16:34:05;;;;;;;0.50;0.50;;;21.10;99.90;;;;;;4884217;29;20506;-69
2023/08/10 16:36:32;;;;;;;1.73;0.57;;;21.10;99.90;;;;;;4890674;29;20558;-69
2023/08/10 16:38:59;;;;;;;0.50;0.50;;;21.30;99.90;;;;;;4893825;29;20474;-71
2023/08/10 16:41:25;;;;;;;2.47;0.67;;;21.40;99.90;;;;;;4890606;29;20484;-71
2023/08/10 16:43:52;;;;;;;2.87;0.50;;;21.40;99.90;;;;;;4893929;29;20510;-71
2023/08/10 16:46:20;;;;;;;0.60;0.60;;;21.30;99.90;;;;;;4892085;29;20482;-71
2023/08/10 16:48:47;;;;;;;2.10;1.07;;;21.20;99.90;;;;;;4888081;29;20483;-72
2023/08/10 16:51:13;;;;;;;1.20;0.67;;;21.00;99.90;;;;;;4891878;29;20474;-72